»·PEaware :: N232KS KBJC-KRKS

N232KS :: KBJC-KRKS

FLIGHT INFORMATION

Flight Status: Arrived
Operator: Privately registered:
United States
More flights under this callsign
Pilot: Tyler J. (19619)
Aircraft: CESSNA 550 CITATION 2/S2/BRAVO
(C550)
More flights by this aircraft type
Origin: KBJC Jeffco
United States
Destination: KRKS Rock Springs-Sweetwater
United States
More flights between these airports :: More routes between these airports
Route: +RLG V328 OCS
File this flight plan on PilotEdge
Remarks:
Altitude:
(Current/Filed)
28,000ft
Speed:
(Current/Filed)
390kts
Departed: 24-Sep-18 07:37 PM
Arrived: 24-Sep-18 08:20 PM
Distance/Time
Traveled:
206nm/0:43
Distance/Time
To Go:
Arrived

Flight Plot

Page will automatically refresh every two minutes.

Flight plan parsing failed; only flown route is shown


Map Options




Map Legend


Flown Route
Filed Route
Departure Airport
Arrival Airport
Navaid (VOR, NDB)
Fix

Horizontal Profiles

Position Reports

Time Latitude Longitude Heading Altitude Ground
Speed
24-Sep-18 19:21 39.911856 -105.117217 309 5673ft 0kts
24-Sep-18 19:22 39.911856 -105.117217 309 5673ft 0kts
24-Sep-18 19:23 39.911856 -105.117217 309 5673ft 0kts
24-Sep-18 19:24 39.911856 -105.117217 309 5673ft 0kts
24-Sep-18 19:25 39.911856 -105.117217 309 5673ft 0kts
24-Sep-18 19:26 39.911856 -105.117217 309 5673ft 0kts
24-Sep-18 19:27 39.911856 -105.117217 309 5673ft 0kts
24-Sep-18 19:28 39.911856 -105.117217 309 5673ft 0kts
24-Sep-18 19:29 39.911856 -105.117217 309 5673ft 0kts
24-Sep-18 19:30 39.911856 -105.117217 309 5673ft 0kts
24-Sep-18 19:31 39.911856 -105.117217 309 5673ft 0kts
24-Sep-18 19:32 39.911856 -105.117217 309 5673ft 0kts
24-Sep-18 19:33 39.911856 -105.117217 309 5673ft 0kts
24-Sep-18 19:34 39.911856 -105.117217 309 5673ft 0kts
24-Sep-18 19:35 39.911571 -105.117483 179 5673ft 10kts
24-Sep-18 19:36 39.911993 -105.120567 303 5673ft 26kts
24-Sep-18 19:37 39.915361 -105.126979 303 5673ft 20kts
24-Sep-18 19:38 39.914984 -105.127897 126 5673ft 0kts
24-Sep-18 19:39 39.908723 -105.116011 126 5685ft 133kts
24-Sep-18 19:40 39.871468 -105.080742 190 7253ft 206kts
24-Sep-18 19:41 39.841617 -105.137083 261 8427ft 212kts
24-Sep-18 19:42 39.850725 -105.217227 285 11048ft 243kts
24-Sep-18 19:43 39.868031 -105.307688 278 13826ft 265kts
24-Sep-18 19:44 39.880072 -105.403802 277 16746ft 272kts
24-Sep-18 19:45 39.892085 -105.501805 278 19447ft 277kts
24-Sep-18 19:46 39.904212 -105.601497 277 21914ft 280kts
24-Sep-18 19:47 39.916426 -105.702696 277 24058ft 284kts
24-Sep-18 19:48 39.928774 -105.805691 277 25859ft 290kts
24-Sep-18 19:49 39.941221 -105.910629 277 27463ft 294kts
24-Sep-18 19:50 39.953862 -106.018580 277 28275ft 320kts
24-Sep-18 19:51 39.968237 -106.142359 277 28265ft 365kts
24-Sep-18 19:52 39.983944 -106.277650 277 28278ft 384kts
24-Sep-18 19:53 40.002019 -106.416019 287 28286ft 393kts
24-Sep-18 19:54 40.060060 -106.539137 303 28291ft 402kts
24-Sep-18 19:55 40.129574 -106.653711 304 28249ft 400kts
24-Sep-18 19:56 40.198687 -106.766813 304 28229ft 396kts
24-Sep-18 19:57 40.266868 -106.879465 304 28225ft 395kts
24-Sep-18 19:58 40.334483 -106.992443 303 28183ft 392kts
24-Sep-18 19:59 40.401539 -107.104781 303 28191ft 390kts
24-Sep-18 20:00 40.466270 -107.213740 303 28165ft 389kts
24-Sep-18 20:01 40.533703 -107.325060 305 28167ft 389kts
24-Sep-18 20:02 40.603328 -107.434278 305 28159ft 389kts
24-Sep-18 20:03 40.672976 -107.543146 305 28156ft 388kts
24-Sep-18 20:04 40.742247 -107.651807 305 28153ft 387kts
24-Sep-18 20:05 40.811640 -107.761082 305 28148ft 387kts
24-Sep-18 20:06 40.880569 -107.870030 305 28140ft 386kts
24-Sep-18 20:07 40.949338 -107.979122 305 28141ft 386kts
24-Sep-18 20:08 41.018154 -108.088740 305 27600ft 396kts
24-Sep-18 20:09 41.083585 -108.194877 305 24790ft 371kts
24-Sep-18 20:10 41.147151 -108.296069 309 21962ft 331kts
24-Sep-18 20:11 41.206080 -108.378263 310 20068ft 292kts
24-Sep-18 20:12 41.260028 -108.456549 310 18068ft 284kts
24-Sep-18 20:13 41.311674 -108.536566 310 16069ft 287kts
24-Sep-18 20:14 41.362995 -108.619982 309 14073ft 295kts
24-Sep-18 20:15 41.415691 -108.705180 309 12102ft 298kts
24-Sep-18 20:16 41.468216 -108.790008 309 10111ft 292kts
24-Sep-18 20:17 41.516411 -108.870080 311 9463ft 268kts
24-Sep-18 20:18 41.559663 -108.919319 313 8960ft 155kts
24-Sep-18 20:19 41.577982 -108.969037 285 8078ft 149kts
24-Sep-18 20:20 41.587178 -109.023154 283 7190ft 151kts
24-Sep-18 20:21 41.594679 -109.064992 282 6763ft 52kts
24-Sep-18 20:22 41.597655 -109.068652 40 6763ft 20kts
24-Sep-18 20:23 41.599674 -109.068432 60 6763ft 7kts
24-Sep-18 20:24 41.599715 -109.068308 70 6763ft 0kts
24-Sep-18 20:25 41.599715 -109.068308 70 6763ft 0kts
24-Sep-18 20:26 41.599715 -109.068308 70 6763ft 0kts
24-Sep-18 20:27 41.599715 -109.068308 70 6763ft 0kts
24-Sep-18 20:28 41.599715 -109.068308 70 6763ft 0kts

Navigation Log

Ident Type
Flight plan parsing failed, navigation log unavailable